Time,TemperatureF,DewpointF,PressureIn,WindDirection,WindDirectionDegrees,WindSpeedMPH,WindSpeedGustMPH,Humidity,HourlyPrecipIn,Conditions,Clouds,dailyrainin,SoftwareType,DateUTC
2015-05-27 00:04:00,66.4,60.7,30.13,ESE,112,0.0,0.0,82,0.00,,,0.00,WUHU21623XXSP,2015-05-27 04:04:00,
2015-05-27 00:09:00,66.6,60.9,30.13,ESE,112,0.0,0.0,82,0.00,,,0.00,WUHU21623XXSP,2015-05-27 04:09:00,
2015-05-27 00:14:00,66.6,60.9,30.13,ESE,112,0.0,0.0,82,0.00,,,0.00,WUHU21623XXSP,2015-05-27 04:14:00,
2015-05-27 00:19:00,66.6,60.9,30.13,ESE,112,0.0,0.0,82,0.00,,,0.00,WUHU21623XXSP,2015-05-27 04:19:00,
2015-05-27 00:24:00,66.6,60.9,30.13,ESE,112,0.0,0.0,82,0.00,,,0.00,WUHU21623XXSP,2015-05-27 04:24:00,
2015-05-27 00:29:00,66.6,60.9,30.13,ESE,112,0.0,0.0,82,0.00,,,0.00,WUHU21623XXSP,2015-05-27 04:29:00,
2015-05-27 00:34:00,66.6,60.9,30.13,ESE,112,0.0,0.0,82,0.00,,,0.00,WUHU21623XXSP,2015-05-27 04:34:00,
2015-05-27 00:39:00,66.6,60.9,30.13,ESE,112,0.0,0.0,82,0.00,,,0.00,WUHU21623XXSP,2015-05-27 04:39:00,
2015-05-27 00:44:00,66.6,60.9,30.13,ESE,112,0.0,0.0,82,0.00,,,0.00,WUHU21623XXSP,2015-05-27 04:44:00,
2015-05-27 00:49:00,66.6,60.9,30.13,ESE,112,0.0,0.0,82,0.00,,,0.00,WUHU21623XXSP,2015-05-27 04:49:00,
2015-05-27 00:54:00,66.6,60.9,30.13,ESE,112,0.0,0.0,82,0.00,,,0.00,WUHU21623XXSP,2015-05-27 04:54:00,
2015-05-27 00:59:00,66.6,60.9,30.12,ESE,112,0.0,0.0,82,0.00,,,0.00,WUHU21623XXSP,2015-05-27 04:59:00,
2015-05-27 01:04:00,66.6,60.9,30.12,ESE,112,0.0,0.0,82,0.00,,,0.00,WUHU21623XXSP,2015-05-27 05:04:00,
2015-05-27 01:09:00,66.7,61.1,30.12,ESE,112,0.0,0.0,82,0.00,,,0.00,WUHU21623XXSP,2015-05-27 05:09:00,
2015-05-27 01:14:00,66.7,61.1,30.13,ESE,112,0.0,0.0,82,0.00,,,0.00,WUHU21623XXSP,2015-05-27 05:14:00,
2015-05-27 01:19:00,66.7,61.1,30.13,ESE,112,0.0,0.0,82,0.00,,,0.00,WUHU21623XXSP,2015-05-27 05:19:00,
2015-05-27 01:24:00,66.7,61.1,30.13,ESE,112,0.0,0.0,82,0.00,,,0.00,WUHU21623XXSP,2015-05-27 05:24:00,
2015-05-27 01:29:00,66.7,61.1,30.13,ESE,112,0.0,0.0,82,0.00,,,0.00,WUHU21623XXSP,2015-05-27 05:29:00,
2015-05-27 01:34:00,66.7,61.1,30.13,ESE,112,0.0,0.0,82,0.00,,,0.00,WUHU21623XXSP,2015-05-27 05:34:00,
2015-05-27 01:39:00,66.7,61.1,30.13,ESE,112,0.0,0.0,82,0.00,,,0.00,WUHU21623XXSP,2015-05-27 05:39:00,
2015-05-27 01:44:00,66.7,61.1,30.13,ESE,112,0.0,0.0,82,0.00,,,0.00,WUHU21623XXSP,2015-05-27 05:44:00,
2015-05-27 01:49:00,66.6,60.9,30.13,ESE,112,0.0,0.0,82,0.00,,,0.00,WUHU21623XXSP,2015-05-27 05:49:00,
2015-05-27 01:54:00,66.6,60.9,30.13,ESE,112,0.0,0.0,82,0.00,,,0.00,WUHU21623XXSP,2015-05-27 05:54:00,
2015-05-27 01:59:00,66.6,60.9,30.13,ESE,112,0.0,0.0,82,0.00,,,0.00,WUHU21623XXSP,2015-05-27 05:59:00,
2015-05-27 02:04:00,66.6,60.9,30.12,ESE,112,0.0,0.0,82,0.00,,,0.00,WUHU21623XXSP,2015-05-27 06:04:00,
2015-05-27 02:14:00,66.4,60.7,30.11,ESE,112,0.0,0.0,82,0.00,,,0.00,WUHU21623XXSP,2015-05-27 06:14:00,
2015-05-27 02:19:00,66.4,60.7,30.13,ESE,112,0.0,0.0,82,0.00,,,0.00,WUHU21623XXSP,2015-05-27 06:19:00,
2015-05-27 02:24:00,66.2,60.5,30.12,ESE,112,0.0,0.0,82,0.00,,,0.00,WUHU21623XXSP,2015-05-27 06:24:00,
2015-05-27 02:29:00,66.2,60.5,30.12,ESE,112,0.0,0.0,82,0.00,,,0.00,WUHU21623XXSP,2015-05-27 06:29:00,
2015-05-27 02:34:00,66.2,60.5,30.11,ESE,112,0.0,0.0,82,0.00,,,0.00,WUHU21623XXSP,2015-05-27 06:34:00,
2015-05-27 02:39:00,66.0,60.4,30.11,ESE,112,0.0,0.0,82,0.00,,,0.00,WUHU21623XXSP,2015-05-27 06:39:00,
2015-05-27 02:44:00,66.0,60.4,30.11,ESE,112,0.0,0.0,82,0.00,,,0.00,WUHU21623XXSP,2015-05-27 06:44:00,
2015-05-27 02:49:00,66.0,60.4,30.11,ESE,112,0.0,0.0,82,0.00,,,0.00,WUHU21623XXSP,2015-05-27 06:49:00,
2015-05-27 02:54:00,66.0,60.4,30.11,ESE,112,0.0,0.0,82,0.00,,,0.00,WUHU21623XXSP,2015-05-27 06:54:00,
2015-05-27 02:59:00,66.0,60.4,30.11,ESE,112,0.0,0.0,82,0.00,,,0.00,WUHU21623XXSP,2015-05-27 06:59:00,
2015-05-27 03:04:00,66.0,60.4,30.11,ESE,112,0.0,0.0,82,0.00,,,0.00,WUHU21623XXSP,2015-05-27 07:04:00,
2015-05-27 03:09:00,66.0,60.4,30.11,ESE,112,0.0,0.0,82,0.00,,,0.00,WUHU21623XXSP,2015-05-27 07:09:00,
2015-05-27 03:14:00,66.0,60.4,30.11,ESE,112,0.0,0.0,82,0.00,,,0.00,WUHU21623XXSP,2015-05-27 07:14:00,
2015-05-27 03:19:00,66.0,60.4,30.11,ESE,112,0.0,0.0,82,0.00,,,0.00,WUHU21623XXSP,2015-05-27 07:19:00,
2015-05-27 03:24:00,66.0,60.4,30.10,ESE,112,0.0,0.0,82,0.00,,,0.00,WUHU21623XXSP,2015-05-27 07:24:00,
2015-05-27 03:29:00,66.0,60.4,30.11,ESE,112,0.0,0.0,82,0.00,,,0.00,WUHU21623XXSP,2015-05-27 07:29:00,
2015-05-27 03:34:00,66.0,60.4,30.10,ESE,112,0.0,0.0,82,0.00,,,0.00,WUHU21623XXSP,2015-05-27 07:34:00,
2015-05-27 03:44:00,66.0,60.4,30.11,ESE,112,0.0,0.0,82,0.00,,,0.00,WUHU21623XXSP,2015-05-27 07:44:00,
2015-05-27 03:49:00,66.0,60.4,30.10,ESE,112,0.0,0.0,82,0.00,,,0.00,WUHU21623XXSP,2015-05-27 07:49:00,
2015-05-27 03:54:00,66.0,60.4,30.10,ESE,112,0.0,0.0,82,0.00,,,0.00,WUHU21623XXSP,2015-05-27 07:54:00,
2015-05-27 03:59:00,66.0,60.4,30.10,ESE,112,0.0,0.0,82,0.00,,,0.00,WUHU21623XXSP,2015-05-27 07:59:00,
2015-05-27 04:09:00,66.0,60.4,30.11,ESE,112,0.0,0.0,82,0.00,,,0.00,WUHU21623XXSP,2015-05-27 08:09:00,
2015-05-27 04:14:00,66.0,60.4,30.10,ESE,112,0.0,0.0,82,0.00,,,0.00,WUHU21623XXSP,2015-05-27 08:14:00,
2015-05-27 04:19:00,66.0,60.4,30.10,ESE,112,0.0,0.0,82,0.00,,,0.00,WUHU21623XXSP,2015-05-27 08:19:00,
2015-05-27 04:24:00,66.0,60.4,30.10,ESE,112,0.0,0.0,82,0.00,,,0.00,WUHU21623XXSP,2015-05-27 08:24:00,
2015-05-27 04:29:00,66.0,60.4,30.11,ESE,112,0.0,0.0,82,0.00,,,0.00,WUHU21623XXSP,2015-05-27 08:29:00,
2015-05-27 04:34:00,66.0,60.4,30.11,ESE,112,0.0,0.0,82,0.00,,,0.00,WUHU21623XXSP,2015-05-27 08:34:00,
2015-05-27 04:39:00,66.0,60.4,30.11,ESE,112,0.0,0.0,82,0.00,,,0.00,WUHU21623XXSP,2015-05-27 08:39:00,
2015-05-27 04:44:00,66.0,60.4,30.11,ESE,112,0.0,0.0,82,0.00,,,0.00,WUHU21623XXSP,2015-05-27 08:44:00,
2015-05-27 04:49:00,66.0,60.4,30.11,ESE,112,0.0,0.0,82,0.00,,,0.00,WUHU21623XXSP,2015-05-27 08:49:00,
2015-05-27 04:54:00,66.0,60.4,30.11,ESE,112,0.0,0.0,82,0.00,,,0.00,WUHU21623XXSP,2015-05-27 08:54:00,
2015-05-27 04:59:00,66.0,60.4,30.11,ESE,112,0.0,0.0,82,0.00,,,0.00,WUHU21623XXSP,2015-05-27 08:59:00,
2015-05-27 05:04:00,66.0,60.4,30.10,ESE,112,0.0,0.0,82,0.00,,,0.00,WUHU21623XXSP,2015-05-27 09:04:00,
2015-05-27 05:09:00,66.0,60.4,30.11,ESE,112,0.0,0.0,82,0.00,,,0.00,WUHU21623XXSP,2015-05-27 09:09:00,
2015-05-27 05:14:00,66.0,60.4,30.11,ESE,112,0.0,0.0,82,0.00,,,0.00,WUHU21623XXSP,2015-05-27 09:14:00,
2015-05-27 05:19:00,66.0,60.4,30.11,ESE,112,0.0,0.0,82,0.00,,,0.00,WUHU21623XXSP,2015-05-27 09:19:00,
2015-05-27 05:24:00,66.0,60.4,30.11,ESE,112,0.0,0.0,82,0.00,,,0.00,WUHU21623XXSP,2015-05-27 09:24:00,
2015-05-27 05:29:00,66.0,60.4,30.11,ESE,112,0.0,0.0,82,0.00,,,0.00,WUHU21623XXSP,2015-05-27 09:29:00,
2015-05-27 05:34:00,66.0,60.4,30.12,ESE,112,0.0,0.0,82,0.00,,,0.00,WUHU21623XXSP,2015-05-27 09:34:00,
2015-05-27 05:39:00,66.0,60.4,30.12,ESE,112,0.0,0.0,82,0.00,,,0.00,WUHU21623XXSP,2015-05-27 09:39:00,
2015-05-27 05:44:00,66.0,60.4,30.12,ESE,112,0.0,0.0,82,0.00,,,0.00,WUHU21623XXSP,2015-05-27 09:44:00,
2015-05-27 05:49:00,66.0,60.4,30.12,ESE,112,0.0,0.0,82,0.00,,,0.00,WUHU21623XXSP,2015-05-27 09:49:00,
2015-05-27 05:54:00,66.0,60.4,30.12,ESE,112,0.0,0.0,82,0.00,,,0.00,WUHU21623XXSP,2015-05-27 09:54:00,
2015-05-27 05:59:00,66.0,60.4,30.13,ESE,112,0.0,0.0,82,0.00,,,0.00,WUHU21623XXSP,2015-05-27 09:59:00,
2015-05-27 06:09:00,66.0,60.4,30.13,ESE,112,0.0,0.0,82,0.00,,,0.00,WUHU21623XXSP,2015-05-27 10:09:00,
2015-05-27 06:14:00,66.0,60.4,30.14,ESE,112,0.0,0.0,82,0.00,,,0.00,WUHU21623XXSP,2015-05-27 10:14:00,
2015-05-27 06:24:00,66.0,60.4,30.14,ESE,112,0.0,0.0,82,0.00,,,0.00,WUHU21623XXSP,2015-05-27 10:24:00,
2015-05-27 06:29:00,66.0,60.4,30.14,ESE,112,0.0,0.0,82,0.00,,,0.00,WUHU21623XXSP,2015-05-27 10:29:00,
2015-05-27 06:34:00,66.0,60.4,30.14,ESE,112,0.0,0.0,82,0.00,,,0.00,WUHU21623XXSP,2015-05-27 10:34:00,
2015-05-27 06:39:00,66.0,60.4,30.14,ESE,112,0.0,0.0,82,0.00,,,0.00,WUHU21623XXSP,2015-05-27 10:39:00,
2015-05-27 06:44:00,66.0,60.4,30.15,ESE,112,0.0,0.0,82,0.00,,,0.00,WUHU21623XXSP,2015-05-27 10:44:00,
2015-05-27 06:49:00,66.0,60.7,30.15,ESE,112,0.0,0.0,83,0.00,,,0.00,WUHU21623XXSP,2015-05-27 10:49:00,
2015-05-27 06:54:00,66.0,60.4,30.15,ESE,112,0.0,0.0,82,0.00,,,0.00,WUHU21623XXSP,2015-05-27 10:54:00,
2015-05-27 06:59:00,66.0,60.7,30.15,ESE,112,0.0,0.0,83,0.00,,,0.00,WUHU21623XXSP,2015-05-27 10:59:00,
2015-05-27 07:04:00,66.0,60.7,30.15,ESE,112,0.0,0.0,83,0.00,,,0.00,WUHU21623XXSP,2015-05-27 11:04:00,
2015-05-27 07:09:00,66.0,60.7,30.15,ESE,112,0.0,0.0,83,0.00,,,0.00,WUHU21623XXSP,2015-05-27 11:09:00,
2015-05-27 07:19:00,66.0,60.7,30.16,ESE,112,0.0,0.0,83,0.00,,,0.00,WUHU21623XXSP,2015-05-27 11:19:00,
2015-05-27 07:24:00,66.0,60.7,30.15,ESE,112,0.0,0.0,83,0.00,,,0.00,WUHU21623XXSP,2015-05-27 11:24:00,
2015-05-27 07:29:00,66.0,60.7,30.15,ESE,112,0.0,0.0,83,0.00,,,0.00,WUHU21623XXSP,2015-05-27 11:29:00,
2015-05-27 07:39:00,66.0,60.7,30.16,ESE,112,0.0,0.0,83,0.00,,,0.00,WUHU21623XXSP,2015-05-27 11:39:00,
2015-05-27 07:44:00,66.0,60.7,30.15,ESE,112,0.0,0.0,83,0.00,,,0.00,WUHU21623XXSP,2015-05-27 11:44:00,
2015-05-27 07:49:00,66.2,60.9,30.16,ESE,112,0.0,0.0,83,0.00,,,0.00,WUHU21623XXSP,2015-05-27 11:49:00,
2015-05-27 07:54:00,66.0,60.7,30.16,ESE,112,0.0,0.0,83,0.00,,,0.00,WUHU21623XXSP,2015-05-27 11:54:00,
2015-05-27 07:59:00,66.2,60.9,30.16,ESE,112,0.0,0.0,83,0.00,,,0.00,WUHU21623XXSP,2015-05-27 11:59:00,
2015-05-27 08:04:00,66.2,60.9,30.17,ESE,112,0.0,0.0,83,0.00,,,0.00,WUHU21623XXSP,2015-05-27 12:04:00,
2015-05-27 08:09:00,66.2,60.7,30.17,ESE,112,0.0,0.0,83,0.00,,,0.00,WUHU21623XXSP,2015-05-27 12:09:00,
2015-05-27 08:14:00,66.2,60.9,30.16,ESE,112,0.0,0.0,83,0.00,,,0.00,WUHU21623XXSP,2015-05-27 12:14:00,
2015-05-27 08:19:00,66.2,60.9,30.16,ESE,112,0.0,0.0,83,0.00,,,0.00,WUHU21623XXSP,2015-05-27 12:19:00,
2015-05-27 08:24:00,66.2,60.9,30.16,ESE,112,0.0,0.0,83,0.00,,,0.00,WUHU21623XXSP,2015-05-27 12:24:00,
2015-05-27 08:29:00,66.4,61.1,30.16,ESE,112,0.0,0.0,83,0.00,,,0.00,WUHU21623XXSP,2015-05-27 12:29:00,
2015-05-27 08:34:00,66.4,61.1,30.16,ESE,112,0.0,0.0,83,0.00,,,0.00,WUHU21623XXSP,2015-05-27 12:34:00,
2015-05-27 08:39:00,66.2,60.9,30.16,ESE,112,0.0,0.0,83,0.00,,,0.00,WUHU21623XXSP,2015-05-27 12:39:00,
2015-05-27 08:44:00,66.4,61.1,30.16,ESE,112,0.0,0.0,83,0.00,,,0.00,WUHU21623XXSP,2015-05-27 12:44:00,
2015-05-27 08:49:00,66.4,61.1,30.16,ESE,112,0.0,0.0,83,0.00,,,0.00,WUHU21623XXSP,2015-05-27 12:49:00,
2015-05-27 08:54:00,66.6,61.1,30.17,ESE,112,0.0,0.0,83,0.00,,,0.00,WUHU21623XXSP,2015-05-27 12:54:00,
2015-05-27 08:59:00,66.6,61.2,30.16,ESE,112,0.0,0.0,83,0.00,,,0.00,WUHU21623XXSP,2015-05-27 12:59:00,
2015-05-27 09:04:00,66.7,61.4,30.17,ESE,112,0.0,0.0,83,0.00,,,0.00,WUHU21623XXSP,2015-05-27 13:04:00,
2015-05-27 09:09:00,66.9,61.6,30.17,ESE,112,0.0,0.0,83,0.00,,,0.00,WUHU21623XXSP,2015-05-27 13:09:00,
2015-05-27 09:19:00,67.1,61.8,30.17,ESE,112,0.0,0.0,83,0.00,,,0.00,WUHU21623XXSP,2015-05-27 13:19:00,
2015-05-27 09:24:00,67.3,62.0,30.17,ESE,112,0.0,0.0,83,0.00,,,0.00,WUHU21623XXSP,2015-05-27 13:24:00,
2015-05-27 09:29:00,67.3,62.0,30.17,ESE,112,0.0,0.0,83,0.00,,,0.00,WUHU21623XXSP,2015-05-27 13:29:00,
2015-05-27 09:34:00,67.3,62.0,30.17,ESE,112,0.0,0.0,83,0.00,,,0.00,WUHU21623XXSP,2015-05-27 13:34:00,
2015-05-27 09:39:00,67.6,62.3,30.17,ESE,112,0.0,0.0,83,0.00,,,0.00,WUHU21623XXSP,2015-05-27 13:39:00,
2015-05-27 09:44:00,67.6,62.3,30.17,ESE,112,0.0,0.0,83,0.00,,,0.00,WUHU21623XXSP,2015-05-27 13:44:00,
2015-05-27 09:49:00,67.8,62.5,30.17,ESE,112,0.0,0.0,83,0.00,,,0.00,WUHU21623XXSP,2015-05-27 13:49:00,
2015-05-27 09:54:00,68.2,62.8,30.17,SE,135,0.0,0.0,83,0.00,,,0.00,WUHU21623XXSP,2015-05-27 13:54:00,
2015-05-27 09:59:00,68.2,62.8,30.17,SE,135,0.0,0.0,83,0.00,,,0.00,WUHU21623XXSP,2015-05-27 13:59:00,
2015-05-27 10:04:00,68.5,63.2,30.17,SE,135,0.0,0.0,83,0.00,,,0.00,WUHU21623XXSP,2015-05-27 14:04:00,
2015-05-27 10:09:00,68.5,63.2,30.16,SE,135,0.0,0.0,83,0.00,,,0.00,WUHU21623XXSP,2015-05-27 14:09:00,
2015-05-27 10:14:00,68.7,63.3,30.16,SE,135,0.0,0.0,83,0.00,,,0.00,WUHU21623XXSP,2015-05-27 14:14:00,
2015-05-27 10:19:00,68.7,63.3,30.16,SE,135,0.0,0.0,83,0.00,,,0.00,WUHU21623XXSP,2015-05-27 14:19:00,
2015-05-27 10:24:00,68.9,63.5,30.16,SE,135,0.0,0.0,83,0.00,,,0.00,WUHU21623XXSP,2015-05-27 14:24:00,
2015-05-27 10:29:00,69.1,63.7,30.16,SE,135,0.0,0.0,83,0.00,,,0.00,WUHU21623XXSP,2015-05-27 14:29:00,
2015-05-27 10:34:00,69.6,64.2,30.16,SE,135,0.0,0.0,83,0.00,,,0.00,WUHU21623XXSP,2015-05-27 14:34:00,
2015-05-27 10:39:00,69.8,64.3,30.16,SE,135,0.0,0.0,83,0.00,,,0.00,WUHU21623XXSP,2015-05-27 14:39:00,
2015-05-27 10:44:00,69.8,64.0,30.16,SE,135,0.0,0.0,82,0.00,,,0.00,WUHU21623XXSP,2015-05-27 14:44:00,
2015-05-27 10:49:00,70.0,64.2,30.16,SE,135,0.0,0.0,82,0.00,,,0.00,WUHU21623XXSP,2015-05-27 14:49:00,
2015-05-27 10:54:00,70.2,64.4,30.16,SE,135,0.0,0.0,82,0.00,,,0.00,WUHU21623XXSP,2015-05-27 14:54:00,
2015-05-27 10:59:00,70.3,64.9,30.16,SE,135,0.0,0.0,83,0.00,,,0.00,WUHU21623XXSP,2015-05-27 14:59:00,
2015-05-27 11:04:00,70.5,65.1,30.16,SE,135,0.0,0.0,83,0.00,,,0.00,WUHU21623XXSP,2015-05-27 15:04:00,
2015-05-27 11:09:00,70.5,64.7,30.17,SE,135,0.0,0.0,82,0.00,,,0.00,WUHU21623XXSP,2015-05-27 15:09:00,
2015-05-27 11:14:00,70.7,64.9,30.16,SE,135,0.0,0.0,82,0.00,,,0.00,WUHU21623XXSP,2015-05-27 15:14:00,
2015-05-27 11:19:00,71.2,65.4,30.17,SE,135,0.0,0.0,82,0.00,,,0.00,WUHU21623XXSP,2015-05-27 15:19:00,
2015-05-27 11:24:00,71.4,65.6,30.16,SE,135,0.0,0.0,82,0.00,,,0.00,WUHU21623XXSP,2015-05-27 15:24:00,
2015-05-27 11:29:00,71.8,65.6,30.16,SE,135,0.0,0.0,81,0.00,,,0.00,WUHU21623XXSP,2015-05-27 15:29:00,
2015-05-27 11:34:00,72.3,65.8,30.17,SE,135,0.0,0.0,81,0.00,,,0.00,WUHU21623XXSP,2015-05-27 15:34:00,
2015-05-27 11:39:00,72.5,65.8,30.17,SE,135,0.0,0.0,80,0.00,,,0.00,WUHU21623XXSP,2015-05-27 15:39:00,
2015-05-27 11:44:00,72.7,66.2,30.17,SE,135,0.0,0.0,80,0.00,,,0.00,WUHU21623XXSP,2015-05-27 15:44:00,
2015-05-27 11:49:00,72.7,65.8,30.17,SE,135,0.0,0.0,79,0.00,,,0.00,WUHU21623XXSP,2015-05-27 15:49:00,
2015-05-27 11:59:00,72.5,65.6,30.17,SE,135,0.0,0.0,79,0.00,,,0.00,WUHU21623XXSP,2015-05-27 15:59:00,
2015-05-27 12:04:00,72.9,66.4,30.17,SE,135,0.0,0.0,80,0.00,,,0.00,WUHU21623XXSP,2015-05-27 16:04:00,
2015-05-27 12:09:00,73.0,66.6,30.17,SE,135,0.0,0.0,80,0.00,,,0.00,WUHU21623XXSP,2015-05-27 16:09:00,
2015-05-27 12:19:00,73.2,66.4,30.17,SE,135,0.0,0.0,79,0.00,,,0.00,WUHU21623XXSP,2015-05-27 16:19:00,
2015-05-27 12:24:00,73.0,66.2,30.17,SE,135,0.0,0.0,79,0.00,,,0.00,WUHU21623XXSP,2015-05-27 16:24:00,
2015-05-27 12:29:00,73.2,66.7,30.17,SE,135,0.0,0.0,80,0.00,,,0.00,WUHU21623XXSP,2015-05-27 16:29:00,
2015-05-27 12:34:00,73.9,67.3,30.17,SE,135,0.0,13.2,80,0.00,,,0.00,WUHU21623XXSP,2015-05-27 16:34:00,
2015-05-27 12:39:00,74.1,67.2,30.17,SSE,157,0.0,13.2,79,0.00,,,0.00,WUHU21623XXSP,2015-05-27 16:39:00,
2015-05-27 12:44:00,74.3,67.2,30.17,SSE,157,0.0,0.0,79,0.00,,,0.00,WUHU21623XXSP,2015-05-27 16:44:00,
2015-05-27 12:49:00,74.7,67.4,30.17,SSW,202,0.0,0.0,78,0.00,,,0.00,WUHU21623XXSP,2015-05-27 16:49:00,
2015-05-27 12:54:00,75.0,67.7,30.16,SSW,202,0.0,0.0,78,0.00,,,0.00,WUHU21623XXSP,2015-05-27 16:54:00,
2015-05-27 12:59:00,75.2,68.3,30.16,SE,135,0.0,0.0,79,0.00,,,0.00,WUHU21623XXSP,2015-05-27 16:59:00,
2015-05-27 13:04:00,75.7,68.8,30.16,SE,135,0.0,0.0,79,0.00,,,0.00,WUHU21623XXSP,2015-05-27 17:04:00,
2015-05-27 13:09:00,75.9,69.0,30.16,SE,135,0.0,8.5,79,0.00,,,0.00,WUHU21623XXSP,2015-05-27 17:09:00,
2015-05-27 13:14:00,76.3,69.3,30.16,SE,135,0.0,8.5,79,0.00,,,0.00,WUHU21623XXSP,2015-05-27 17:14:00,
2015-05-27 13:19:00,76.8,69.4,30.16,ESE,112,0.0,0.0,78,0.00,,,0.00,WUHU21623XXSP,2015-05-27 17:19:00,
2015-05-27 13:24:00,76.6,69.2,30.15,ESE,112,0.0,0.0,78,0.00,,,0.00,WUHU21623XXSP,2015-05-27 17:24:00,
2015-05-27 13:29:00,76.3,68.9,30.15,ESE,112,0.0,0.0,78,0.00,,,0.00,WUHU21623XXSP,2015-05-27 17:29:00,
2015-05-27 13:34:00,76.1,68.8,30.15,South,180,0.0,22.4,78,0.00,,,0.00,WUHU21623XXSP,2015-05-27 17:34:00,
2015-05-27 13:39:00,76.1,69.1,30.15,South,180,6.3,22.4,79,0.00,,,0.00,WUHU21623XXSP,2015-05-27 17:39:00,
2015-05-27 13:44:00,76.1,69.1,30.15,South,180,0.0,6.3,79,0.00,,,0.00,WUHU21623XXSP,2015-05-27 17:44:00,
2015-05-27 13:49:00,76.3,68.9,30.15,SSE,157,15.7,15.7,78,0.00,,,0.00,WUHU21623XXSP,2015-05-27 17:49:00,
2015-05-27 13:54:00,76.8,69.4,30.15,South,180,0.0,15.7,78,0.00,,,0.00,WUHU21623XXSP,2015-05-27 17:54:00,
2015-05-27 13:59:00,77.0,69.6,30.14,SSE,157,0.0,0.0,78,0.00,,,0.00,WUHU21623XXSP,2015-05-27 17:59:00,
2015-05-27 14:04:00,77.4,69.9,30.14,ENE,67,21.3,21.3,78,0.00,,,0.00,WUHU21623XXSP,2015-05-27 18:04:00,
2015-05-27 14:09:00,77.7,70.3,30.14,ESE,112,0.0,21.3,78,0.00,,,0.00,WUHU21623XXSP,2015-05-27 18:09:00,
2015-05-27 14:14:00,77.9,70.5,30.14,ESE,112,0.0,0.0,78,0.00,,,0.00,WUHU21623XXSP,2015-05-27 18:14:00,
2015-05-27 14:19:00,78.1,70.6,30.13,ESE,112,0.0,0.0,78,0.00,,,0.00,WUHU21623XXSP,2015-05-27 18:19:00,
2015-05-27 14:24:00,78.1,70.6,30.14,ESE,112,0.0,0.0,78,0.00,,,0.00,WUHU21623XXSP,2015-05-27 18:24:00,
2015-05-27 14:29:00,78.4,70.6,30.13,ESE,112,0.0,0.0,77,0.00,,,0.00,WUHU21623XXSP,2015-05-27 18:29:00,
2015-05-27 14:34:00,78.6,70.8,30.13,ESE,112,0.0,0.0,77,0.00,,,0.00,WUHU21623XXSP,2015-05-27 18:34:00,
2015-05-27 14:39:00,79.0,71.1,30.13,East,90,0.0,0.0,77,0.00,,,0.00,WUHU21623XXSP,2015-05-27 18:39:00,
2015-05-27 14:44:00,79.0,71.1,30.13,East,90,0.0,0.0,77,0.00,,,0.00,WUHU21623XXSP,2015-05-27 18:44:00,
2015-05-27 14:49:00,79.0,70.7,30.12,ESE,112,0.0,0.0,76,0.00,,,0.00,WUHU21623XXSP,2015-05-27 18:49:00,
2015-05-27 14:54:00,78.6,70.8,30.12,ESE,112,0.0,0.0,77,0.00,,,0.00,WUHU21623XXSP,2015-05-27 18:54:00,
2015-05-27 14:59:00,78.6,70.8,30.12,ESE,112,0.0,0.0,77,0.00,,,0.00,WUHU21623XXSP,2015-05-27 18:59:00,
2015-05-27 15:04:00,78.6,70.4,30.12,ESE,112,0.0,0.0,76,0.00,,,0.00,WUHU21623XXSP,2015-05-27 19:04:00,
2015-05-27 15:09:00,78.4,70.4,30.11,ESE,112,0.0,0.0,77,0.00,,,0.00,WUHU21623XXSP,2015-05-27 19:09:00,
2015-05-27 15:14:00,78.4,70.6,30.11,ESE,112,0.0,0.0,77,0.00,,,0.00,WUHU21623XXSP,2015-05-27 19:14:00,
2015-05-27 15:19:00,78.1,70.4,30.11,ESE,112,17.2,17.2,77,0.00,,,0.00,WUHU21623XXSP,2015-05-27 19:19:00,
2015-05-27 15:24:00,78.1,69.9,30.11,East,90,0.0,17.9,76,0.00,,,0.00,WUHU21623XXSP,2015-05-27 19:24:00,
2015-05-27 15:29:00,78.4,70.2,30.11,ESE,112,0.0,17.9,76,0.00,,,0.00,WUHU21623XXSP,2015-05-27 19:29:00,
2015-05-27 15:34:00,78.6,70.4,30.10,ESE,112,0.0,0.0,77,0.00,,,0.00,WUHU21623XXSP,2015-05-27 19:34:00,
2015-05-27 15:39:00,78.8,71.0,30.10,ESE,112,0.0,0.0,77,0.00,,,0.00,WUHU21623XXSP,2015-05-27 19:39:00,
2015-05-27 15:44:00,78.6,71.0,30.10,ESE,112,0.0,0.0,77,0.00,,,0.00,WUHU21623XXSP,2015-05-27 19:44:00,
2015-05-27 15:49:00,78.4,70.6,30.11,ESE,112,0.0,0.0,77,0.00,,,0.00,WUHU21623XXSP,2015-05-27 19:49:00,
2015-05-27 15:54:00,78.1,70.3,30.10,ESE,112,0.0,0.0,77,0.00,,,0.00,WUHU21623XXSP,2015-05-27 19:54:00,
2015-05-27 15:59:00,78.1,70.3,30.11,ESE,112,0.0,0.0,77,0.00,,,0.00,WUHU21623XXSP,2015-05-27 19:59:00,
2015-05-27 16:04:00,78.1,70.6,30.10,ESE,112,0.0,0.0,78,0.00,,,0.00,WUHU21623XXSP,2015-05-27 20:04:00,
2015-05-27 16:10:00,78.3,70.6,30.10,ESE,112,0.0,0.0,78,0.00,,,0.00,WUHU21623XXSP,2015-05-27 20:10:00,
2015-05-27 16:15:00,78.4,70.6,30.10,ESE,112,0.0,0.0,77,0.00,,,0.00,WUHU21623XXSP,2015-05-27 20:15:00,
2015-05-27 16:20:00,78.6,70.8,30.10,ESE,112,0.0,0.0,77,0.00,,,0.00,WUHU21623XXSP,2015-05-27 20:20:00,
2015-05-27 16:25:00,78.6,70.8,30.10,ESE,112,0.0,0.0,77,0.00,,,0.00,WUHU21623XXSP,2015-05-27 20:25:00,
2015-05-27 16:30:00,78.6,70.4,30.10,ESE,112,0.0,0.0,76,0.00,,,0.00,WUHU21623XXSP,2015-05-27 20:30:00,
2015-05-27 16:35:00,78.6,70.0,30.10,ESE,112,0.0,0.0,75,0.00,,,0.00,WUHU21623XXSP,2015-05-27 20:35:00,
2015-05-27 16:40:00,78.6,70.4,30.09,ESE,112,0.0,0.0,76,0.00,,,0.00,WUHU21623XXSP,2015-05-27 20:40:00,
2015-05-27 16:45:00,78.6,70.4,30.09,ESE,112,0.0,0.0,76,0.00,,,0.00,WUHU21623XXSP,2015-05-27 20:45:00,
2015-05-27 16:50:00,78.6,70.4,30.09,ESE,112,0.0,0.0,76,0.00,,,0.00,WUHU21623XXSP,2015-05-27 20:50:00,
2015-05-27 16:55:00,78.6,70.0,30.09,ESE,112,0.0,0.0,75,0.00,,,0.00,WUHU21623XXSP,2015-05-27 20:55:00,
2015-05-27 17:00:00,78.6,70.0,30.09,ESE,112,0.0,0.0,75,0.00,,,0.00,WUHU21623XXSP,2015-05-27 21:00:00,
2015-05-27 17:05:00,78.6,69.6,30.08,ESE,112,0.0,0.0,74,0.00,,,0.00,WUHU21623XXSP,2015-05-27 21:05:00,
2015-05-27 17:10:00,78.6,69.6,30.08,ESE,112,0.0,0.0,74,0.00,,,0.00,WUHU21623XXSP,2015-05-27 21:10:00,
2015-05-27 17:15:00,78.1,69.5,30.07,ESE,112,0.0,0.0,75,0.00,,,0.00,WUHU21623XXSP,2015-05-27 21:15:00,
2015-05-27 17:20:00,77.7,69.1,30.07,ESE,112,0.0,0.0,75,0.00,,,0.00,WUHU21623XXSP,2015-05-27 21:20:00,
2015-05-27 17:25:00,77.7,69.1,30.08,ESE,112,0.0,0.0,75,0.00,,,0.00,WUHU21623XXSP,2015-05-27 21:25:00,